Time;durP1;ratioP1;P1;durP2;ratioP2;P2;SDS_P1;SDS_P2;PMS_P1;PMS_P2;Temp;Humidity;BMP_temperature;BMP_pressure;BME280_temperature;BME280_humidity;BME280_pressure;Samples;Min_cycle;Max_cycle;Signal;HPM_P1;HPM_P2
2021/07/09 00:01:54;;;;;;;42.80;29.60;;;;;;;;;;5169180;27;20462;-51
2021/07/09 00:04:28;;;;;;;28.87;23.47;;;;;;;;;;5169080;27;20724;-53
2021/07/09 00:06:56;;;;;;;18.43;15.43;;;;;;;;;;5077256;28;20558;-54
2021/07/09 00:09:24;;;;;;;33.77;23.30;;;;;;;;;;5078650;28;20483;-53
2021/07/09 00:11:59;;;;;;;18.50;14.30;;;;;;;;;;5083921;28;20503;-55
2021/07/09 00:14:27;;;;;;;10.60;8.37;;;;;;;;;;5083779;28;20460;-52
2021/07/09 00:16:56;;;;;;;8.50;7.03;;;;;;;;;;5083665;28;20512;-53
2021/07/09 00:19:23;;;;;;;17.77;13.13;;;;;;;;;;5084221;28;20744;-52
2021/07/09 00:21:50;;;;;;;12.73;8.93;;;;;;;;;;5064746;28;20525;-52
2021/07/09 00:24:18;;;;;;;17.03;13.73;;;;;;;;;;5049712;28;20504;-57
2021/07/09 00:26:48;;;;;;;29.47;24.37;;;;;;;;;;5059444;28;20525;-53
2021/07/09 00:29:18;;;;;;;13.93;11.83;;;;;;;;;;5069581;28;20873;-53
2021/07/09 00:31:45;;;;;;;20.57;15.60;;;;;;;;;;5054232;28;20493;-52
2021/07/09 00:34:24;;;;;;;22.80;14.63;;;;;;;;;;5050207;28;20447;-53
2021/07/09 00:36:51;;;;;;;13.20;9.97;;;;;;;;;;5057083;28;20536;-54
2021/07/09 00:39:19;;;;;;;12.70;7.60;;;;;;;;;;5069260;28;20457;-55
2021/07/09 00:41:50;;;;;;;14.37;9.47;;;;;;;;;;5057911;28;20491;-55
2021/07/09 00:44:18;;;;;;;8.60;7.33;;;;;;;;;;5050299;28;20453;-57
2021/07/09 00:46:47;;;;;;;17.17;15.07;;;;;;;;;;5064980;28;20537;-55
2021/07/09 00:49:27;;;;;;;19.23;15.63;;;;;;;;;;5070357;28;20449;-53
2021/07/09 00:51:55;;;;;;;9.80;7.30;;;;;;;;;;5049420;28;20546;-54
2021/07/09 00:54:22;;;;;;;12.43;7.03;;;;;;;;;;5049631;28;20470;-55
2021/07/09 00:56:52;;;;;;;8.83;5.70;;;;;;;;;;5050667;28;20471;-53
2021/07/09 00:59:23;;;;;;;7.57;5.73;;;;;;;;;;5056062;28;20462;-54
2021/07/09 01:01:50;;;;;;;14.33;10.50;;;;;;;;;;5055656;28;20458;-52
2021/07/09 01:04:19;;;;;;;9.00;7.03;;;;;;;;;;5059380;28;20812;-56
2021/07/09 01:06:47;;;;;;;9.60;6.40;;;;;;;;;;5050011;28;20442;-56
2021/07/09 01:09:15;;;;;;;11.77;10.00;;;;;;;;;;5048886;28;20510;-54
2021/07/09 01:11:50;;;;;;;9.07;6.40;;;;;;;;;;5049742;28;20508;-51
2021/07/09 01:14:18;;;;;;;22.63;18.90;;;;;;;;;;5050603;28;20571;-51
2021/07/09 01:16:45;;;;;;;12.83;9.10;;;;;;;;;;5050129;28;20933;-55
2021/07/09 01:19:15;;;;;;;11.30;9.10;;;;;;;;;;5050029;28;20436;-54
2021/07/09 01:21:43;;;;;;;16.70;11.43;;;;;;;;;;5052990;28;20568;-55
2021/07/09 01:24:11;;;;;;;13.87;9.93;;;;;;;;;;5070144;28;20457;-54
2021/07/09 01:26:44;;;;;;;13.90;9.20;;;;;;;;;;5062423;28;20533;-51
2021/07/09 01:29:12;;;;;;;15.60;9.13;;;;;;;;;;5062738;27;20523;-56
2021/07/09 01:31:43;;;;;;;9.10;7.03;;;;;;;;;;5058107;28;20517;-53
2021/07/09 01:34:10;;;;;;;11.87;6.57;;;;;;;;;;5048674;28;20519;-53
2021/07/09 01:36:37;;;;;;;10.63;6.60;;;;;;;;;;5063354;28;20453;-52
2021/07/09 01:39:07;;;;;;;9.70;6.43;;;;;;;;;;5069228;28;20490;-55
2021/07/09 01:41:36;;;;;;;15.10;10.73;;;;;;;;;;5051395;28;20474;-52
2021/07/09 01:44:04;;;;;;;34.63;25.03;;;;;;;;;;5049748;28;20491;-52
2021/07/09 01:46:31;;;;;;;13.87;11.70;;;;;;;;;;5049769;28;20857;-55
2021/07/09 01:48:58;;;;;;;24.33;15.87;;;;;;;;;;5052701;28;20465;-54
2021/07/09 01:51:36;;;;;;;15.37;10.90;;;;;;;;;;5069641;28;20481;-56
2021/07/09 01:54:03;;;;;;;22.20;17.00;;;;;;;;;;5068889;28;20480;-53
2021/07/09 01:56:30;;;;;;;30.83;20.37;;;;;;;;;;5069935;28;20453;-56
2021/07/09 01:58:59;;;;;;;14.33;11.70;;;;;;;;;;5070116;28;20497;-54
2021/07/09 02:01:26;;;;;;;7.43;6.50;;;;;;;;;;5069474;28;20483;-56
2021/07/09 02:03:54;;;;;;;7.67;6.87;;;;;;;;;;5069243;28;20501;-55
2021/07/09 02:06:21;;;;;;;7.90;7.10;;;;;;;;;;5070052;28;20467;-55
2021/07/09 02:08:48;;;;;;;8.07;6.67;;;;;;;;;;5069775;28;20478;-52
2021/07/09 02:11:16;;;;;;;13.87;11.43;;;;;;;;;;5069712;28;20453;-55
2021/07/09 02:13:49;;;;;;;27.07;21.20;;;;;;;;;;5069260;28;20473;-52
2021/07/09 02:16:18;;;;;;;16.23;14.10;;;;;;;;;;5034353;28;20527;-53
2021/07/09 02:18:46;;;;;;;17.97;14.80;;;;;;;;;;5029232;28;20459;-54
2021/07/09 02:21:28;;;;;;;14.60;11.60;;;;;;;;;;5028987;28;20471;-52
2021/07/09 02:23:57;;;;;;;15.60;13.20;;;;;;;;;;5040086;28;20527;-54
2021/07/09 02:26:24;;;;;;;13.13;10.63;;;;;;;;;;5036914;28;20458;-54
2021/07/09 02:28:51;;;;;;;12.10;10.80;;;;;;;;;;5014329;28;20516;-53
2021/07/09 02:31:20;;;;;;;12.93;10.90;;;;;;;;;;5023403;28;20546;-54
2021/07/09 02:33:49;;;;;;;17.13;13.77;;;;;;;;;;5011327;28;20507;-54
2021/07/09 02:36:32;;;;;;;10.97;8.87;;;;;;;;;;5010448;28;20470;-53
2021/07/09 02:39:00;;;;;;;10.63;9.50;;;;;;;;;;5022510;28;20459;-51
2021/07/09 02:41:27;;;;;;;16.00;12.07;;;;;;;;;;5112289;28;20465;-51
2021/07/09 02:43:55;;;;;;;17.00;13.20;;;;;;;;;;5080846;28;20475;-54
2021/07/09 02:46:23;;;;;;;9.70;7.50;;;;;;;;;;5009584;28;20456;-57
2021/07/09 02:48:51;;;;;;;13.03;9.03;;;;;;;;;;5008783;28;20444;-59
2021/07/09 02:51:22;;;;;;;12.80;7.63;;;;;;;;;;5009512;28;20493;-55
2021/07/09 02:53:49;;;;;;;11.23;8.00;;;;;;;;;;5021990;28;20732;-57
2021/07/09 02:56:16;;;;;;;12.90;7.67;;;;;;;;;;5028234;28;20497;-55
2021/07/09 02:58:47;;;;;;;11.10;8.20;;;;;;;;;;5028371;28;20512;-54
2021/07/09 03:01:14;;;;;;;10.27;7.13;;;;;;;;;;5028637;28;20455;-56
2021/07/09 03:03:43;;;;;;;9.77;7.57;;;;;;;;;;5010267;28;20476;-55
2021/07/09 03:06:15;;;;;;;9.80;7.33;;;;;;;;;;5010625;28;20463;-52
2021/07/09 03:08:44;;;;;;;12.23;7.40;;;;;;;;;;5028573;28;20466;-51
2021/07/09 03:11:11;;;;;;;10.10;6.87;;;;;;;;;;5028952;28;20459;-55
2021/07/09 03:13:39;;;;;;;8.83;7.20;;;;;;;;;;5028893;28;20551;-55
2021/07/09 03:16:06;;;;;;;8.40;7.50;;;;;;;;;;5028511;28;20496;-53
2021/07/09 03:18:39;;;;;;;10.47;6.43;;;;;;;;;;5028857;28;20443;-53
2021/07/09 03:21:08;;;;;;;9.03;7.60;;;;;;;;;;5020451;28;20532;-52
2021/07/09 03:23:36;;;;;;;11.13;6.90;;;;;;;;;;5028773;28;20520;-55
2021/07/09 03:26:05;;;;;;;10.57;8.13;;;;;;;;;;5013735;28;20452;-56
2021/07/09 03:28:32;;;;;;;11.73;7.07;;;;;;;;;;5009262;28;20456;-54
2021/07/09 03:30:59;;;;;;;9.53;8.57;;;;;;;;;;5008956;28;20492;-55
2021/07/09 03:33:33;;;;;;;12.93;10.30;;;;;;;;;;5009253;28;20537;-55
2021/07/09 03:36:00;;;;;;;14.60;11.37;;;;;;;;;;5023634;28;20725;-54
2021/07/09 03:38:29;;;;;;;19.33;14.40;;;;;;;;;;5017630;28;20475;-54
2021/07/09 03:41:22;;;;;;;18.53;14.17;;;;;;;;;;5026540;28;20460;-54
2021/07/09 03:43:52;;;;;;;19.30;14.20;;;;;;;;;;5013051;28;20488;-55
2021/07/09 03:46:20;;;;;;;18.97;14.83;;;;;;;;;;5024986;28;20451;-53
2021/07/09 03:48:57;;;;;;;20.83;14.17;;;;;;;;;;5021730;28;20511;-56
2021/07/09 03:51:29;;;;;;;20.50;13.97;;;;;;;;;;5028880;28;20469;-52
2021/07/09 03:53:58;;;;;;;27.43;12.87;;;;;;;;;;5009802;28;20536;-54
2021/07/09 03:56:48;;;;;;;23.53;13.70;;;;;;;;;;5019210;28;20471;-51
2021/07/09 03:59:15;;;;;;;20.50;15.53;;;;;;;;;;5020728;28;20908;-53
2021/07/09 04:01:43;;;;;;;24.50;16.03;;;;;;;;;;5021534;28;20978;-53
2021/07/09 04:04:11;;;;;;;26.70;16.00;;;;;;;;;;5016083;28;20470;-55
2021/07/09 04:06:39;;;;;;;20.80;15.77;;;;;;;;;;5031566;28;20458;-52
2021/07/09 04:09:07;;;;;;;28.10;15.70;;;;;;;;;;5032966;28;20438;-53
2021/07/09 04:11:51;;;;;;;23.80;15.57;;;;;;;;;;5032689;28;20489;-56
2021/07/09 04:14:19;;;;;;;31.33;14.73;;;;;;;;;;5031582;28;20451;-56
2021/07/09 04:16:47;;;;;;;28.30;18.27;;;;;;;;;;5012529;28;20472;-52
2021/07/09 04:19:14;;;;;;;19.20;16.50;;;;;;;;;;5016475;28;20451;-55
2021/07/09 04:21:42;;;;;;;23.03;17.13;;;;;;;;;;5032315;28;20455;-53
2021/07/09 04:24:12;;;;;;;28.27;17.53;;;;;;;;;;5031078;28;20434;-52
2021/07/09 04:26:46;;;;;;;18.57;15.50;;;;;;;;;;5032935;28;20497;-53
2021/07/09 04:29:14;;;;;;;27.43;18.40;;;;;;;;;;5020987;28;20532;-53
2021/07/09 04:31:41;;;;;;;24.77;17.00;;;;;;;;;;5011777;28;20475;-55
2021/07/09 04:34:16;;;;;;;28.37;16.97;;;;;;;;;;5015694;28;20610;-52
2021/07/09 04:36:44;;;;;;;28.57;17.70;;;;;;;;;;5019918;28;20492;-54
2021/07/09 04:39:12;;;;;;;24.40;16.93;;;;;;;;;;5033525;28;20474;-50
2021/07/09 04:41:46;;;;;;;26.63;18.13;;;;;;;;;;5032171;28;20462;-56
2021/07/09 04:44:14;;;;;;;20.93;16.90;;;;;;;;;;5032243;28;20482;-52
2021/07/09 04:46:42;;;;;;;27.70;18.37;;;;;;;;;;5018378;28;20471;-51
2021/07/09 04:49:23;;;;;;;24.73;18.30;;;;;;;;;;5050976;28;20487;-51
2021/07/09 04:51:52;;;;;;;23.40;17.50;;;;;;;;;;5048964;28;20490;-56
2021/07/09 04:54:22;;;;;;;25.90;18.63;;;;;;;;;;5076208;27;20477;-52
2021/07/09 04:56:53;;;;;;;23.30;19.27;;;;;;;;;;5064965;27;20571;-55
2021/07/09 04:59:21;;;;;;;21.27;18.13;;;;;;;;;;5043474;28;20453;-51
2021/07/09 05:01:48;;;;;;;26.07;18.37;;;;;;;;;;5051167;28;20431;-49
2021/07/09 05:04:17;;;;;;;26.20;19.30;;;;;;;;;;5050665;28;20458;-52
2021/07/09 05:06:53;;;;;;;25.30;19.07;;;;;;;;;;5050032;28;20449;-54
2021/07/09 05:09:22;;;;;;;24.87;19.50;;;;;;;;;;5049551;28;20505;-52
2021/07/09 05:11:51;;;;;;;23.90;16.70;;;;;;;;;;5051332;28;20466;-52
2021/07/09 05:14:18;;;;;;;29.50;19.47;;;;;;;;;;5050828;28;20559;-55
2021/07/09 05:16:45;;;;;;;24.10;18.40;;;;;;;;;;5050932;28;20778;-53
2021/07/09 05:19:14;;;;;;;31.03;20.87;;;;;;;;;;5045457;28;20470;-51
2021/07/09 05:21:50;;;;;;;27.17;20.07;;;;;;;;;;5050793;28;20473;-54
2021/07/09 05:24:22;;;;;;;31.33;21.93;;;;;;;;;;5050344;28;20477;-52
2021/07/09 05:26:51;;;;;;;27.17;19.57;;;;;;;;;;5051426;28;20481;-56
2021/07/09 05:29:20;;;;;;;27.60;20.13;;;;;;;;;;5043754;28;20477;-54
2021/07/09 05:31:51;;;;;;;25.67;19.50;;;;;;;;;;5033395;28;20459;-54
2021/07/09 05:34:19;;;;;;;31.27;22.20;;;;;;;;;;5051328;28;20474;-55
2021/07/09 05:36:47;;;;;;;28.20;20.87;;;;;;;;;;5044940;28;20467;-53
2021/07/09 05:39:16;;;;;;;28.10;19.53;;;;;;;;;;5031581;28;20462;-54
2021/07/09 05:41:44;;;;;;;29.20;20.17;;;;;;;;;;5031367;28;20475;-55
2021/07/09 05:44:12;;;;;;;25.67;19.97;;;;;;;;;;5031376;28;20490;-52
2021/07/09 05:46:41;;;;;;;23.10;19.63;;;;;;;;;;5045276;28;20466;-53
2021/07/09 05:49:08;;;;;;;118.77;87.23;;;;;;;;;;5042004;28;20466;-55
2021/07/09 05:51:36;;;;;;;28.77;20.60;;;;;;;;;;5042437;28;20533;-52
2021/07/09 05:54:14;;;;;;;32.63;21.13;;;;;;;;;;5031201;28;20483;-50
2021/07/09 05:56:53;;;;;;;29.50;19.90;;;;;;;;;;5050368;28;20473;-51
2021/07/09 05:59:24;;;;;;;22.80;18.40;;;;;;;;;;5044245;28;20443;-53
2021/07/09 06:01:55;;;;;;;22.20;19.10;;;;;;;;;;5047014;28;20473;-52
2021/07/09 06:04:22;;;;;;;29.87;22.30;;;;;;;;;;5051205;28;20469;-53
2021/07/09 06:06:50;;;;;;;24.90;19.50;;;;;;;;;;5050999;28;20482;-55
2021/07/09 06:09:43;;;;;;;23.20;20.70;;;;;;;;;;5039955;28;20475;-53
2021/07/09 06:12:11;;;;;;;22.80;18.47;;;;;;;;;;5043460;28;20605;-53
2021/07/09 06:14:40;;;;;;;24.37;19.83;;;;;;;;;;5032528;28;20494;-54
2021/07/09 06:17:08;;;;;;;31.80;20.30;;;;;;;;;;5047972;28;20466;-51
2021/07/09 06:19:35;;;;;;;27.33;22.30;;;;;;;;;;5050887;28;20679;-60
2021/07/09 06:22:28;;;;;;;25.50;20.23;;;;;;;;;;5049133;28;20449;-56
2021/07/09 06:24:56;;;;;;;28.57;19.93;;;;;;;;;;5097650;28;20458;-56
2021/07/09 06:27:26;;;;;;;28.13;20.43;;;;;;;;;;5049463;28;20454;-57
2021/07/09 06:30:27;;;;;;;26.70;21.90;;;;;;;;;;5031478;28;20513;-56
2021/07/09 06:32:56;;;;;;;27.63;20.63;;;;;;;;;;5049299;28;20506;-57
2021/07/09 06:35:28;;;;;;;32.43;22.90;;;;;;;;;;5049297;28;20474;-51
2021/07/09 06:38:05;;;;;;;28.07;22.37;;;;;;;;;;5050910;28;20527;-56
2021/07/09 06:40:32;;;;;;;23.00;20.60;;;;;;;;;;5050041;28;20473;-52
2021/07/09 06:43:00;;;;;;;25.70;20.77;;;;;;;;;;5030851;28;20452;-57
2021/07/09 06:45:44;;;;;;;26.27;21.33;;;;;;;;;;5051641;28;20446;-57
2021/07/09 06:48:14;;;;;;;27.17;21.33;;;;;;;;;;5100647;27;20461;-53
2021/07/09 06:50:42;;;;;;;26.03;21.63;;;;;;;;;;5075103;27;20459;-52
2021/07/09 06:53:09;;;;;;;26.60;23.20;;;;;;;;;;5049115;28;20482;-58
2021/07/09 06:55:37;;;;;;;32.43;24.43;;;;;;;;;;5049318;28;20462;-54
2021/07/09 06:58:18;;;;;;;31.07;23.40;;;;;;;;;;5048582;28;20454;-53
2021/07/09 07:00:45;;;;;;;29.10;25.90;;;;;;;;;;5029252;28;20454;-54
2021/07/09 07:03:14;;;;;;;34.20;26.30;;;;;;;;;;5034750;28;20450;-54
2021/07/09 07:05:42;;;;;;;38.13;26.50;;;;;;;;;;5049590;28;20449;-55
2021/07/09 07:08:16;;;;;;;33.27;29.63;;;;;;;;;;5048896;28;20490;-55
2021/07/09 07:10:49;;;;;;;35.33;28.93;;;;;;;;;;5049216;28;20720;-59
2021/07/09 07:13:25;;;;;;;37.43;31.10;;;;;;;;;;5045260;28;20489;-53
2021/07/09 07:15:53;;;;;;;35.53;30.60;;;;;;;;;;5049222;28;20473;-56
2021/07/09 07:18:22;;;;;;;40.23;31.17;;;;;;;;;;5047560;28;20487;-55
2021/07/09 07:20:53;;;;;;;39.87;35.07;;;;;;;;;;5048317;28;20442;-55
2021/07/09 07:23:21;;;;;;;35.13;31.53;;;;;;;;;;5046495;28;20489;-59
2021/07/09 07:25:51;;;;;;;37.37;31.40;;;;;;;;;;5048764;28;20477;-58
2021/07/09 07:28:18;;;;;;;36.07;32.10;;;;;;;;;;5071920;28;20442;-54
2021/07/09 07:30:45;;;;;;;37.47;32.40;;;;;;;;;;5076868;28;20458;-55
2021/07/09 07:33:13;;;;;;;43.97;33.57;;;;;;;;;;5049687;28;20469;-56
2021/07/09 07:35:42;;;;;;;37.00;32.90;;;;;;;;;;5051215;28;20466;-55
2021/07/09 07:38:10;;;;;;;33.70;30.00;;;;;;;;;;5051580;28;20462;-56
2021/07/09 07:40:53;;;;;;;37.87;31.80;;;;;;;;;;5052574;28;20467;-54
2021/07/09 07:43:29;;;;;;;32.47;28.63;;;;;;;;;;5116733;27;20485;-55
2021/07/09 07:45:58;;;;;;;36.23;30.73;;;;;;;;;;5118401;27;20495;-53
2021/07/09 07:48:46;;;;;;;34.30;29.87;;;;;;;;;;5052344;28;20489;-60
2021/07/09 07:51:14;;;;;;;35.70;28.07;;;;;;;;;;5115729;28;20559;-54
2021/07/09 07:53:42;;;;;;;30.27;26.67;;;;;;;;;;5134983;28;20504;-57
2021/07/09 07:56:14;;;;;;;36.40;28.87;;;;;;;;;;5136332;28;20453;-56
2021/07/09 07:58:42;;;;;;;33.33;25.37;;;;;;;;;;5134803;28;20485;-54
2021/07/09 08:01:14;;;;;;;33.77;29.83;;;;;;;;;;5134742;28;20620;-53
2021/07/09 08:03:43;;;;;;;32.00;28.50;;;;;;;;;;5135995;28;20434;-53
2021/07/09 08:06:10;;;;;;;35.23;28.80;;;;;;;;;;5136500;28;20537;-53
2021/07/09 08:08:39;;;;;;;32.07;27.07;;;;;;;;;;5136839;28;20472;-56
2021/07/09 08:11:07;;;;;;;35.03;27.93;;;;;;;;;;5135472;28;20457;-55
2021/07/09 08:13:34;;;;;;;37.13;28.37;;;;;;;;;;5136504;28;20486;-55
2021/07/09 08:16:19;;;;;;;37.27;28.63;;;;;;;;;;5135679;28;20904;-55
2021/07/09 08:18:47;;;;;;;33.10;28.33;;;;;;;;;;5126936;28;20438;-56
2021/07/09 08:21:15;;;;;;;33.83;29.63;;;;;;;;;;5135068;28;20458;-52
2021/07/09 08:24:05;;;;;;;35.73;30.30;;;;;;;;;;5134887;28;20462;-51
2021/07/09 08:26:40;;;;;;;37.30;29.20;;;;;;;;;;5114999;28;20470;-56
2021/07/09 08:29:09;;;;;;;32.50;28.97;;;;;;;;;;5122075;28;20684;-54
2021/07/09 08:31:39;;;;;;;35.00;28.90;;;;;;;;;;5135178;28;20456;-54
2021/07/09 08:34:07;;;;;;;32.47;28.00;;;;;;;;;;5134088;28;20556;-57
2021/07/09 08:36:36;;;;;;;40.03;31.10;;;;;;;;;;5131326;28;20463;-55
2021/07/09 08:39:07;;;;;;;45.10;31.27;;;;;;;;;;5134723;28;20451;-56
2021/07/09 08:41:38;;;;;;;39.00;30.77;;;;;;;;;;5127022;28;20511;-53
2021/07/09 08:44:18;;;;;;;36.57;30.67;;;;;;;;;;5117614;28;20450;-55
2021/07/09 08:46:46;;;;;;;38.00;32.27;;;;;;;;;;5118795;28;20538;-53
2021/07/09 08:49:16;;;;;;;36.50;31.27;;;;;;;;;;5113069;28;20447;-55
2021/07/09 08:51:44;;;;;;;37.23;31.60;;;;;;;;;;5110142;28;20455;-53
2021/07/09 08:54:13;;;;;;;33.17;28.57;;;;;;;;;;5113149;28;20485;-56
2021/07/09 08:56:43;;;;;;;40.83;30.23;;;;;;;;;;5103903;28;20521;-54
2021/07/09 08:59:11;;;;;;;33.83;30.13;;;;;;;;;;5111722;28;20455;-55
2021/07/09 09:01:48;;;;;;;37.83;29.67;;;;;;;;;;5113095;28;20485;-55
2021/07/09 09:04:27;;;;;;;31.60;27.70;;;;;;;;;;5095911;28;20454;-55
2021/07/09 09:07:13;;;;;;;33.87;27.90;;;;;;;;;;5124821;28;20490;-56
2021/07/09 09:09:43;;;;;;;32.67;26.67;;;;;;;;;;5135307;28;20442;-53
2021/07/09 09:12:12;;;;;;;33.07;28.87;;;;;;;;;;5135619;28;20537;-57
2021/07/09 09:14:40;;;;;;;34.23;28.90;;;;;;;;;;5135790;28;20503;-53
2021/07/09 09:17:28;;;;;;;32.40;28.90;;;;;;;;;;5128988;28;20512;-55
2021/07/09 09:20:13;;;;;;;27.80;24.97;;;;;;;;;;5115816;28;20455;-58
2021/07/09 09:23:05;;;;;;;25.93;23.30;;;;;;;;;;5135227;27;20942;-56
2021/07/09 09:25:39;;;;;;;30.63;24.83;;;;;;;;;;5151439;27;20523;-57
2021/07/09 09:28:08;;;;;;;30.73;26.53;;;;;;;;;;5153150;27;20526;-58
2021/07/09 09:30:50;;;;;;;30.03;25.00;;;;;;;;;;5153837;27;20462;-58
2021/07/09 09:33:41;;;;;;;31.67;26.93;;;;;;;;;;5153858;27;20483;-55
2021/07/09 09:36:11;;;;;;;25.20;20.67;;;;;;;;;;5134849;27;20535;-57
2021/07/09 09:38:39;;;;;;;23.27;20.90;;;;;;;;;;5153629;27;20436;-55
2021/07/09 09:41:24;;;;;;;25.97;20.60;;;;;;;;;;5151375;27;20464;-58
2021/07/09 09:43:52;;;;;;;26.37;22.50;;;;;;;;;;5151702;27;20540;-56
2021/07/09 09:46:26;;;;;;;23.07;19.77;;;;;;;;;;5149217;27;20464;-57
2021/07/09 09:49:13;;;;;;;23.50;19.00;;;;;;;;;;5131292;28;20455;-58
2021/07/09 09:51:42;;;;;;;20.90;18.00;;;;;;;;;;5130749;28;20476;-53
2021/07/09 09:57:05;;;;;;;17.80;14.30;;;;;;;;;;5138328;27;20472;-57
2021/07/09 09:59:33;;;;;;;16.70;13.27;;;;;;;;;;5118420;27;20455;-56
2021/07/09 10:02:17;;;;;;;18.47;15.00;;;;;;;;;;5149422;27;20428;-56
2021/07/09 10:04:44;;;;;;;15.83;13.20;;;;;;;;;;5149830;27;20447;-57
2021/07/09 10:07:12;;;;;;;14.10;11.60;;;;;;;;;;5151548;27;20508;-58
2021/07/09 10:09:41;;;;;;;24.70;14.17;;;;;;;;;;5151023;27;20690;-57
2021/07/09 10:12:10;;;;;;;18.93;13.07;;;;;;;;;;5149885;27;20487;-56
2021/07/09 10:14:40;;;;;;;17.47;13.53;;;;;;;;;;5150292;27;20492;-58
2021/07/09 10:17:11;;;;;;;13.23;11.40;;;;;;;;;;5150254;27;20457;-58
2021/07/09 10:20:05;;;;;;;14.17;12.20;;;;;;;;;;5151472;27;20456;-57
2021/07/09 10:22:34;;;;;;;16.07;13.97;;;;;;;;;;5133736;27;20456;-57
2021/07/09 10:25:02;;;;;;;14.37;11.43;;;;;;;;;;5131375;28;20523;-61
2021/07/09 10:27:32;;;;;;;18.30;12.67;;;;;;;;;;5141609;27;20485;-53
2021/07/09 10:30:06;;;;;;;20.97;13.67;;;;;;;;;;5150485;27;20468;-60
2021/07/09 10:32:44;;;;;;;13.53;11.40;;;;;;;;;;5150883;27;20512;-56
2021/07/09 10:35:13;;;;;;;17.43;11.47;;;;;;;;;;5150341;27;20472;-57
2021/07/09 10:37:41;;;;;;;17.90;12.70;;;;;;;;;;5149352;27;20535;-58
2021/07/09 10:40:32;;;;;;;15.37;12.67;;;;;;;;;;5151175;27;20465;-58
2021/07/09 10:43:05;;;;;;;13.67;11.90;;;;;;;;;;5146527;27;20461;-58
2021/07/09 10:45:37;;;;;;;14.70;11.77;;;;;;;;;;5139052;27;20460;-57
2021/07/09 10:48:08;;;;;;;18.93;11.60;;;;;;;;;;5125742;28;20461;-53
2021/07/09 10:50:42;;;;;;;14.90;10.63;;;;;;;;;;5129630;27;20458;-55
2021/07/09 10:53:19;;;;;;;23.63;13.47;;;;;;;;;;5147248;27;20444;-51
2021/07/09 10:56:02;;;;;;;18.83;10.40;;;;;;;;;;5131816;28;20487;-59
2021/07/09 10:58:45;;;;;;;16.03;10.70;;;;;;;;;;5146026;27;20480;-56
2021/07/09 11:01:31;;;;;;;17.23;12.10;;;;;;;;;;5150751;27;20504;-59
2021/07/09 11:04:24;;;;;;;13.13;9.90;;;;;;;;;;5146817;27;20482;-58
2021/07/09 11:07:20;;;;;;;15.07;10.27;;;;;;;;;;5131420;28;20449;-58
2021/07/09 11:09:51;;;;;;;12.00;9.80;;;;;;;;;;5130542;28;20441;-57
2021/07/09 11:12:40;;;;;;;10.80;9.70;;;;;;;;;;5134662;28;20451;-59
2021/07/09 11:15:12;;;;;;;11.50;9.50;;;;;;;;;;5151385;28;20556;-54
2021/07/09 11:18:15;;;;;;;12.07;9.17;;;;;;;;;;5150387;27;20504;-58
2021/07/09 11:20:43;;;;;;;12.40;9.33;;;;;;;;;;5130007;28;20533;-57
2021/07/09 11:23:14;;;;;;;9.33;8.43;;;;;;;;;;5130092;28;20465;-57
2021/07/09 11:25:58;;;;;;;13.97;8.30;;;;;;;;;;5131404;28;20556;-56
2021/07/09 11:28:31;;;;;;;12.10;9.47;;;;;;;;;;5130166;28;20501;-58
2021/07/09 11:31:22;;;;;;;9.90;8.23;;;;;;;;;;5147729;28;20468;-55
2021/07/09 11:34:01;;;;;;;9.10;7.47;;;;;;;;;;5149059;27;20487;-56
2021/07/09 11:36:29;;;;;;;10.77;8.17;;;;;;;;;;5145632;28;20510;-54
2021/07/09 11:39:08;;;;;;;10.90;7.40;;;;;;;;;;5141211;28;20443;-55
2021/07/09 11:41:35;;;;;;;9.30;6.93;;;;;;;;;;5147931;27;20461;-58
2021/07/09 11:44:10;;;;;;;10.27;7.30;;;;;;;;;;5143918;28;20449;-58
2021/07/09 11:46:44;;;;;;;12.53;9.40;;;;;;;;;;5149826;27;20453;-57
2021/07/09 11:49:18;;;;;;;8.70;7.80;;;;;;;;;;5149863;28;20460;-57
2021/07/09 11:51:50;;;;;;;12.70;8.57;;;;;;;;;;5150138;27;20476;-57
2021/07/09 11:54:23;;;;;;;14.70;11.93;;;;;;;;;;5129251;28;20454;-55
2021/07/09 11:57:00;;;;;;;12.27;10.10;;;;;;;;;;5150161;28;20475;-55
2021/07/09 11:59:31;;;;;;;12.80;9.60;;;;;;;;;;5147201;28;20452;-56
2021/07/09 12:02:14;;;;;;;14.53;9.10;;;;;;;;;;5140058;28;20515;-55
2021/07/09 12:04:55;;;;;;;10.67;8.13;;;;;;;;;;5149902;28;20461;-59
2021/07/09 12:07:31;;;;;;;14.13;8.90;;;;;;;;;;5143473;28;20454;-56
2021/07/09 12:10:11;;;;;;;11.60;9.80;;;;;;;;;;5148806;28;20551;-58
2021/07/09 12:12:51;;;;;;;10.70;9.13;;;;;;;;;;5147966;28;20452;-60
2021/07/09 12:15:19;;;;;;;12.00;9.60;;;;;;;;;;5130287;28;20489;-54
2021/07/09 12:17:50;;;;;;;10.90;9.70;;;;;;;;;;5143617;28;20488;-58
2021/07/09 12:20:27;;;;;;;10.27;9.20;;;;;;;;;;5148892;27;20469;-59
2021/07/09 12:23:14;;;;;;;11.50;9.93;;;;;;;;;;5135034;27;20463;-58
2021/07/09 12:25:47;;;;;;;11.33;8.10;;;;;;;;;;5140287;27;20497;-58
2021/07/09 12:28:15;;;;;;;11.37;9.50;;;;;;;;;;5147348;27;20466;-57
2021/07/09 12:31:01;;;;;;;10.53;9.10;;;;;;;;;;5134867;27;20472;-60
2021/07/09 12:33:30;;;;;;;12.53;8.80;;;;;;;;;;5141683;27;20707;-57
2021/07/09 12:36:01;;;;;;;8.10;7.20;;;;;;;;;;5139478;27;20547;-56
2021/07/09 12:38:34;;;;;;;13.57;7.53;;;;;;;;;;5138578;27;20478;-58
2021/07/09 12:41:03;;;;;;;8.97;6.70;;;;;;;;;;5147195;27;20495;-57
2021/07/09 12:43:31;;;;;;;10.13;7.80;;;;;;;;;;5151459;27;20541;-58
2021/07/09 12:46:01;;;;;;;9.67;8.00;;;;;;;;;;5152588;27;20455;-57
2021/07/09 12:48:32;;;;;;;7.60;6.50;;;;;;;;;;5147081;27;20521;-58
2021/07/09 12:51:01;;;;;;;8.50;6.50;;;;;;;;;;5133175;28;20458;-55
2021/07/09 12:53:35;;;;;;;11.37;7.33;;;;;;;;;;5151562;27;20457;-57
2021/07/09 12:56:19;;;;;;;8.90;6.33;;;;;;;;;;5141171;27;20477;-58
2021/07/09 12:58:49;;;;;;;8.50;6.60;;;;;;;;;;5153652;27;20469;-54
2021/07/09 13:01:24;;;;;;;9.13;6.80;;;;;;;;;;5149377;27;20557;-57
2021/07/09 13:03:51;;;;;;;9.87;6.23;;;;;;;;;;5141720;27;20564;-59
2021/07/09 13:06:41;;;;;;;10.80;6.07;;;;;;;;;;5135229;27;20487;-59
2021/07/09 13:09:27;;;;;;;8.73;6.57;;;;;;;;;;5146305;27;20513;-62
2021/07/09 13:12:18;;;;;;;7.43;6.30;;;;;;;;;;5139685;27;20441;-58
2021/07/09 13:14:59;;;;;;;7.50;5.47;;;;;;;;;;5142409;27;20438;-56
2021/07/09 13:17:28;;;;;;;8.03;5.63;;;;;;;;;;5141515;27;20445;-56
2021/07/09 13:20:21;;;;;;;6.30;5.00;;;;;;;;;;5152586;27;20464;-56
2021/07/09 13:22:52;;;;;;;8.00;5.57;;;;;;;;;;5149948;27;20461;-58
2021/07/09 13:25:22;;;;;;;12.80;6.93;;;;;;;;;;5150405;27;20457;-59
2021/07/09 13:28:01;;;;;;;7.80;5.57;;;;;;;;;;5151779;27;20640;-58
2021/07/09 13:30:44;;;;;;;9.10;6.40;;;;;;;;;;5152802;27;20429;-57
2021/07/09 13:33:18;;;;;;;15.53;13.27;;;;;;;;;;5150208;27;20571;-58
2021/07/09 13:35:54;;;;;;;7.20;4.70;;;;;;;;;;5152444;27;20520;-58
2021/07/09 13:38:23;;;;;;;7.60;5.60;;;;;;;;;;5150559;27;20475;-58
2021/07/09 13:41:11;;;;;;;9.47;6.00;;;;;;;;;;5147315;27;20453;-58
2021/07/09 13:43:40;;;;;;;7.53;5.30;;;;;;;;;;5137468;27;20475;-58
2021/07/09 13:46:15;;;;;;;7.53;5.50;;;;;;;;;;5139647;27;20465;-59
2021/07/09 13:48:45;;;;;;;7.30;5.80;;;;;;;;;;5143894;27;20465;-57
2021/07/09 13:51:14;;;;;;;6.40;4.87;;;;;;;;;;5149880;27;20467;-56
2021/07/09 13:53:55;;;;;;;7.60;4.90;;;;;;;;;;5150936;27;20541;-58
2021/07/09 13:56:22;;;;;;;6.53;4.73;;;;;;;;;;5150172;27;20480;-58
2021/07/09 14:02:10;;;;;;;6.40;5.20;;;;;;;;;;5148089;27;20504;-57
2021/07/09 14:04:38;;;;;;;7.13;5.63;;;;;;;;;;5149530;27;20454;-58
2021/07/09 14:07:14;;;;;;;6.93;5.17;;;;;;;;;;5151837;27;20485;-55
2021/07/09 14:09:47;;;;;;;9.60;6.70;;;;;;;;;;5148277;27;20481;-58
2021/07/09 14:12:18;;;;;;;7.87;5.73;;;;;;;;;;5150383;27;20816;-56
2021/07/09 14:15:04;;;;;;;8.13;6.70;;;;;;;;;;5146573;27;20445;-59
2021/07/09 14:20:46;;;;;;;13.10;7.47;;;;;;;;;;5145766;27;20449;-58
2021/07/09 14:23:14;;;;;;;10.77;7.00;;;;;;;;;;5144908;27;20458;-58
2021/07/09 14:28:25;;;;;;;8.43;6.23;;;;;;;;;;5146883;27;20687;-57
2021/07/09 14:31:01;;;;;;;11.33;6.93;;;;;;;;;;5136079;27;20450;-57
2021/07/09 14:33:29;;;;;;;8.37;7.27;;;;;;;;;;5130482;28;20446;-57
2021/07/09 14:36:01;;;;;;;8.20;6.50;;;;;;;;;;5142960;27;20481;-57
2021/07/09 14:41:10;;;;;;;12.77;6.47;;;;;;;;;;5136730;27;20462;-57
2021/07/09 14:43:41;;;;;;;8.87;6.80;;;;;;;;;;5128811;28;20450;-52
2021/07/09 14:46:09;;;;;;;10.67;6.70;;;;;;;;;;5129768;28;20787;-60
2021/07/09 14:48:36;;;;;;;10.60;8.10;;;;;;;;;;5142369;27;20576;-56
2021/07/09 14:51:07;;;;;;;10.67;7.60;;;;;;;;;;5147756;27;20459;-58
2021/07/09 14:53:48;;;;;;;11.07;8.40;;;;;;;;;;5149439;27;20495;-58
2021/07/09 14:56:16;;;;;;;9.87;8.83;;;;;;;;;;5150695;27;20526;-58
2021/07/09 14:58:50;;;;;;;13.37;9.57;;;;;;;;;;5142443;27;20461;-59
2021/07/09 15:01:29;;;;;;;11.27;6.97;;;;;;;;;;5149913;27;20461;-58
2021/07/09 15:04:00;;;;;;;7.33;5.93;;;;;;;;;;5147933;27;20457;-58
2021/07/09 15:06:29;;;;;;;7.23;6.20;;;;;;;;;;5147986;27;20460;-58
2021/07/09 15:09:07;;;;;;;11.77;5.90;;;;;;;;;;5140879;27;20482;-58